createdAt,value
2018-03-16T00:00:20.970Z,90.80
2018-03-16T00:02:48.452Z,92.00
2018-03-16T00:05:16.353Z,92.80
2018-03-16T00:07:43.804Z,92.80
2018-03-16T00:10:11.267Z,93.60
2018-03-16T00:12:38.708Z,93.50
2018-03-16T00:15:06.181Z,94.00
2018-03-16T00:17:34.439Z,93.90
2018-03-16T00:20:01.892Z,93.60
2018-03-16T00:22:38.040Z,93.10
2018-03-16T00:25:05.494Z,93.30
2018-03-16T00:27:32.965Z,93.30
2018-03-16T00:30:00.389Z,93.70
2018-03-16T00:32:27.836Z,94.00
2018-03-16T00:34:55.268Z,94.40
2018-03-16T00:37:22.705Z,94.60
2018-03-16T00:39:50.137Z,95.00
2018-03-16T00:42:17.580Z,95.40
2018-03-16T00:44:45.428Z,96.20
2018-03-16T00:47:12.870Z,96.20
2018-03-16T00:49:40.292Z,96.40
2018-03-16T00:52:07.737Z,96.50
2018-03-16T00:54:35.168Z,96.70
2018-03-16T00:57:02.622Z,96.80
2018-03-16T00:59:30.048Z,97.00
2018-03-16T01:01:57.494Z,97.00
2018-03-16T01:04:24.920Z,97.20
2018-03-16T01:06:52.369Z,97.30
2018-03-16T01:09:19.790Z,97.40
2018-03-16T01:11:47.225Z,97.10
2018-03-16T01:14:14.665Z,97.40
2018-03-16T01:16:42.103Z,97.40
2018-03-16T01:19:09.539Z,97.50
2018-03-16T01:21:36.972Z,97.60
2018-03-16T01:24:04.440Z,97.70
2018-03-16T01:26:31.881Z,97.80
2018-03-16T01:28:59.310Z,97.00
2018-03-16T01:31:26.757Z,96.70
2018-03-16T01:33:54.193Z,96.80
2018-03-16T01:36:21.630Z,96.80
2018-03-16T01:38:49.456Z,96.90
2018-03-16T01:41:16.899Z,96.90
2018-03-16T01:43:44.334Z,97.30
2018-03-16T01:46:11.790Z,97.60
2018-03-16T01:48:39.216Z,97.80
2018-03-16T01:51:07.054Z,97.80
2018-03-16T01:53:34.488Z,97.80
2018-03-16T01:56:02.338Z,97.30
2018-03-16T01:58:29.844Z,97.50
2018-03-16T02:00:57.289Z,97.70
2018-03-16T02:03:24.718Z,97.60
2018-03-16T02:05:52.169Z,97.70
2018-03-16T02:08:19.603Z,97.70
2018-03-16T02:10:47.032Z,97.60
2018-03-16T02:13:14.481Z,97.60
2018-03-16T02:15:41.914Z,97.60
2018-03-16T02:18:09.377Z,97.50
2018-03-16T02:20:36.804Z,97.30
2018-03-16T02:23:04.244Z,97.20
2018-03-16T02:25:31.680Z,97.10
2018-03-16T02:27:59.516Z,94.90
2018-03-16T02:30:26.947Z,94.90
2018-03-16T02:32:54.396Z,93.60
2018-03-16T02:35:21.827Z,93.50
2018-03-16T02:37:49.832Z,93.50
2018-03-16T02:40:17.236Z,93.50
2018-03-16T02:42:44.689Z,94.20
2018-03-16T02:45:12.121Z,95.00
2018-03-16T02:47:39.586Z,95.00
2018-03-16T02:50:07.025Z,94.90
2018-03-16T02:52:34.469Z,94.40
2018-03-16T02:55:01.897Z,94.40
2018-03-16T02:57:30.403Z,94.60
2018-03-16T02:59:57.906Z,94.90
2018-03-16T03:02:25.424Z,95.60
2018-03-16T03:04:52.836Z,95.80
2018-03-16T03:07:20.274Z,96.10
2018-03-16T03:09:47.710Z,96.70
2018-03-16T03:12:15.142Z,96.80
2018-03-16T03:14:42.573Z,96.90
2018-03-16T03:17:10.011Z,97.10
2018-03-16T03:19:37.444Z,97.30
2018-03-16T03:22:04.900Z,97.40
2018-03-16T03:24:32.331Z,97.50
2018-03-16T03:26:59.768Z,97.60
2018-03-16T03:29:27.209Z,97.50
2018-03-16T03:31:54.648Z,97.10
2018-03-16T03:34:22.477Z,97.30
2018-03-16T03:36:49.916Z,97.30
2018-03-16T03:39:17.358Z,97.50
2018-03-16T03:41:44.834Z,97.50
2018-03-16T03:44:12.245Z,97.70
2018-03-16T03:46:40.086Z,98.00
2018-03-16T03:49:07.539Z,98.00
2018-03-16T03:51:34.972Z,98.20
2018-03-16T03:54:02.436Z,98.40
2018-03-16T03:56:29.884Z,98.50
2018-03-16T03:58:58.205Z,98.50
2018-03-16T04:01:25.655Z,98.50
2018-03-16T04:03:53.083Z,98.40
2018-03-16T04:06:20.527Z,98.30
2018-03-16T04:08:47.983Z,98.40
2018-03-16T04:11:15.411Z,98.50
2018-03-16T04:13:42.847Z,98.60
2018-03-16T04:16:10.681Z,98.70
2018-03-16T04:18:38.128Z,98.70
2018-03-16T04:21:05.562Z,98.60
2018-03-16T04:23:33.022Z,98.50
2018-03-16T04:26:00.471Z,98.40
2018-03-16T04:28:27.904Z,98.20
2018-03-16T04:30:55.742Z,98.10
2018-03-16T04:33:23.189Z,98.10
2018-03-16T04:35:50.674Z,98.10
2018-03-16T04:38:18.602Z,98.10
2018-03-16T04:40:46.057Z,98.20
2018-03-16T04:43:13.495Z,98.20
2018-03-16T04:45:40.929Z,98.30
2018-03-16T04:48:08.809Z,98.40
2018-03-16T04:50:36.236Z,98.40
2018-03-16T04:53:04.116Z,98.40
2018-03-16T04:55:31.576Z,98.40
2018-03-16T04:57:59.426Z,98.60
2018-03-16T05:00:26.852Z,98.60
2018-03-16T05:02:54.294Z,98.70
2018-03-16T05:05:21.728Z,98.50
2018-03-16T05:07:49.160Z,98.30
2018-03-16T05:10:16.628Z,98.10
2018-03-16T05:12:44.065Z,98.00
2018-03-16T05:15:11.505Z,97.80
2018-03-16T05:17:38.949Z,97.90
2018-03-16T05:20:06.374Z,98.00
2018-03-16T05:22:33.817Z,98.20
2018-03-16T05:25:01.237Z,98.30
2018-03-16T05:27:28.667Z,98.20
2018-03-16T05:29:56.098Z,98.40
2018-03-16T05:32:23.533Z,98.50
2018-03-16T05:34:51.007Z,98.60
2018-03-16T05:37:18.426Z,98.60
2018-03-16T05:39:45.870Z,98.70
2018-03-16T05:42:13.305Z,98.80
2018-03-16T05:44:40.732Z,98.80
2018-03-16T05:47:08.166Z,98.70
2018-03-16T05:49:35.994Z,98.80
2018-03-16T05:52:03.484Z,98.80
2018-03-16T05:54:31.317Z,98.70
2018-03-16T05:56:58.752Z,98.70
2018-03-16T05:59:26.206Z,98.70
2018-03-16T06:01:53.631Z,98.70
2018-03-16T06:04:21.053Z,98.70
2018-03-16T06:06:48.488Z,98.70
2018-03-16T06:09:15.941Z,98.60
2018-03-16T06:11:43.379Z,98.50
2018-03-16T06:14:10.821Z,98.60
2018-03-16T06:16:38.248Z,98.60
2018-03-16T06:19:06.085Z,98.70
2018-03-16T06:21:33.520Z,98.70
2018-03-16T06:24:00.989Z,98.80
2018-03-16T06:26:28.416Z,98.90
2018-03-16T06:28:55.850Z,98.80
2018-03-16T06:31:23.286Z,99.00
2018-03-16T06:33:50.766Z,99.00
2018-03-16T06:36:18.148Z,98.90
2018-03-16T06:38:45.580Z,98.80
2018-03-16T06:41:13.416Z,98.80
2018-03-16T06:43:40.841Z,98.80
2018-03-16T06:46:08.274Z,98.70
2018-03-16T06:48:35.709Z,98.70
2018-03-16T06:51:03.137Z,98.70
2018-03-16T06:53:30.577Z,98.70
2018-03-16T06:55:58.008Z,98.60
2018-03-16T06:58:25.440Z,98.70
2018-03-16T07:00:53.289Z,98.90
2018-03-16T07:03:20.754Z,98.90
2018-03-16T07:05:48.603Z,98.60
2018-03-16T07:08:16.032Z,98.60
2018-03-16T07:10:43.474Z,98.60
2018-03-16T07:13:10.915Z,98.60
2018-03-16T07:15:38.364Z,98.50
2018-03-16T07:18:05.800Z,98.50
2018-03-16T07:20:33.228Z,98.50
2018-03-16T07:23:00.669Z,98.50
2018-03-16T07:25:28.092Z,98.50
2018-03-16T07:27:55.535Z,98.40
2018-03-16T07:30:23.368Z,98.30
2018-03-16T07:32:50.867Z,98.30
2018-03-16T07:35:18.258Z,98.20
2018-03-16T07:37:45.698Z,98.00
2018-03-16T07:40:13.116Z,97.80
2018-03-16T07:42:40.557Z,97.80
2018-03-16T07:45:09.005Z,97.90
2018-03-16T07:47:36.504Z,98.00
2018-03-16T07:50:03.882Z,97.90
2018-03-16T07:52:31.704Z,97.90
2018-03-16T07:54:59.137Z,97.90
2018-03-16T07:57:26.581Z,97.90
2018-03-16T07:59:54.000Z,97.90
2018-03-16T08:02:21.820Z,98.00
2018-03-16T08:04:49.273Z,98.00
2018-03-16T08:07:16.708Z,97.80
2018-03-16T08:09:44.136Z,97.60
2018-03-16T08:12:11.959Z,97.40
2018-03-16T08:14:39.403Z,97.40
2018-03-16T08:17:07.246Z,97.60
2018-03-16T08:19:35.099Z,97.50
2018-03-16T08:22:02.912Z,97.70
2018-03-16T08:24:30.357Z,97.70
2018-03-16T08:26:57.785Z,97.70
2018-03-16T08:29:25.224Z,97.50
2018-03-16T08:31:53.050Z,97.00
2018-03-16T08:34:20.497Z,96.90
2018-03-16T08:36:47.924Z,97.10
2018-03-16T08:39:15.357Z,97.20
2018-03-16T08:41:43.181Z,97.20
2018-03-16T08:44:10.621Z,97.20
2018-03-16T08:46:38.065Z,97.30
2018-03-16T08:49:05.513Z,97.20
2018-03-16T08:51:32.944Z,97.20
2018-03-16T08:54:00.780Z,97.00
2018-03-16T08:56:28.204Z,97.00
2018-03-16T08:58:55.653Z,96.90
2018-03-16T09:01:23.089Z,96.90
2018-03-16T09:03:50.533Z,97.00
2018-03-16T09:06:17.973Z,96.80
2018-03-16T09:08:45.424Z,96.50
2018-03-16T09:11:12.962Z,96.60
2018-03-16T09:13:40.400Z,96.80
2018-03-16T09:16:07.857Z,96.70
2018-03-16T09:18:35.295Z,96.80
2018-03-16T09:21:02.726Z,96.70
2018-03-16T09:23:30.156Z,96.70
2018-03-16T09:25:57.600Z,95.90
2018-03-16T09:28:25.046Z,95.90
2018-03-16T09:30:52.457Z,95.90
2018-03-16T09:33:20.295Z,95.60
2018-03-16T09:35:47.722Z,95.60
2018-03-16T09:38:15.167Z,95.00
2018-03-16T09:40:42.632Z,94.80
2018-03-16T09:43:10.088Z,94.70
2018-03-16T09:45:37.500Z,94.60
2018-03-16T09:48:04.941Z,94.90
2018-03-16T09:50:45.845Z,94.40
2018-03-16T09:53:25.361Z,94.20
2018-03-16T09:55:52.795Z,94.20
2018-03-16T09:58:20.259Z,94.00
2018-03-16T10:00:47.688Z,93.80
2018-03-16T10:03:15.125Z,93.40
2018-03-16T10:05:42.548Z,93.60
2018-03-16T10:08:09.985Z,93.20
2018-03-16T10:10:37.409Z,93.10
2018-03-16T10:13:04.870Z,92.90
2018-03-16T10:15:32.300Z,92.90
2018-03-16T10:17:59.745Z,93.00
2018-03-16T10:20:27.564Z,92.20
2018-03-16T10:22:55.002Z,92.20
2018-03-16T10:25:22.424Z,92.50
2018-03-16T10:27:49.867Z,91.90
2018-03-16T10:30:17.296Z,92.20
2018-03-16T10:32:44.727Z,92.10
2018-03-16T10:35:12.178Z,91.50
2018-03-16T10:37:39.617Z,91.30
2018-03-16T10:40:07.157Z,91.00
2018-03-16T10:42:34.585Z,90.90
2018-03-16T10:45:02.024Z,90.80
2018-03-16T10:47:29.463Z,90.40
2018-03-16T10:49:56.900Z,90.30
2018-03-16T10:52:24.339Z,89.80
2018-03-16T10:54:52.171Z,89.90
2018-03-16T10:57:19.610Z,89.90
2018-03-16T10:59:47.042Z,89.80
2018-03-16T11:02:20.380Z,89.80
2018-03-16T11:04:53.524Z,88.80
2018-03-16T11:07:20.957Z,89.20
2018-03-16T11:09:48.802Z,88.80
2018-03-16T11:12:16.241Z,88.80
2018-03-16T11:14:43.679Z,88.40
2018-03-16T11:17:11.123Z,88.80
2018-03-16T11:19:38.564Z,89.00
2018-03-16T11:22:06.384Z,88.60
2018-03-16T11:24:33.828Z,88.60
2018-03-16T11:27:01.261Z,89.60
2018-03-16T11:29:28.732Z,88.80
2018-03-16T11:31:56.164Z,89.00
2018-03-16T11:34:23.600Z,88.60
2018-03-16T11:36:51.424Z,89.00
2018-03-16T11:39:18.870Z,89.00
2018-03-16T11:41:46.301Z,89.30
2018-03-16T11:44:13.738Z,89.30
2018-03-16T11:46:41.580Z,89.30
2018-03-16T11:49:09.032Z,89.40
2018-03-16T11:51:36.455Z,89.20
2018-03-16T11:54:03.886Z,89.00
2018-03-16T11:56:31.484Z,88.90
2018-03-16T11:58:58.933Z,87.80
2018-03-16T12:01:26.392Z,87.70
2018-03-16T12:03:53.823Z,87.50
2018-03-16T12:06:21.248Z,87.60
2018-03-16T12:08:48.684Z,88.00
2018-03-16T12:11:16.113Z,87.40
2018-03-16T12:13:43.543Z,87.70
2018-03-16T12:16:10.961Z,88.10
2018-03-16T12:18:38.405Z,88.00
2018-03-16T12:21:05.840Z,87.90
2018-03-16T12:23:33.274Z,88.30
2018-03-16T12:26:00.833Z,87.60
2018-03-16T12:28:49.210Z,88.40
2018-03-16T12:30:56.121Z,88.30
2018-03-16T12:33:23.533Z,88.30
2018-03-16T12:35:50.973Z,88.40
2018-03-16T12:38:18.400Z,88.20
2018-03-16T12:40:45.840Z,88.20
2018-03-16T12:43:13.288Z,89.00
2018-03-16T12:45:40.736Z,89.30
2018-03-16T12:48:08.499Z,89.00
2018-03-16T12:50:35.969Z,89.00
2018-03-16T12:53:03.405Z,89.50
2018-03-16T12:55:30.849Z,89.30
2018-03-16T12:57:58.281Z,89.00
2018-03-16T13:00:25.721Z,88.70
2018-03-16T13:02:53.149Z,89.00
2018-03-16T13:05:20.605Z,89.10
2018-03-16T13:07:48.039Z,89.30
2018-03-16T13:10:15.494Z,89.40
2018-03-16T13:12:42.928Z,89.10
2018-03-16T13:15:10.734Z,89.20
2018-03-16T13:17:38.161Z,89.20
2018-03-16T13:20:05.609Z,88.70
2018-03-16T13:22:33.048Z,88.60
2018-03-16T13:25:00.452Z,87.80
2018-03-16T13:27:27.933Z,88.00
2018-03-16T13:29:55.330Z,86.90
2018-03-16T13:32:22.766Z,87.70
2018-03-16T13:34:50.587Z,86.30
2018-03-16T13:37:18.021Z,86.30
2018-03-16T13:39:45.452Z,86.90
2018-03-16T13:42:12.881Z,86.70
2018-03-16T13:44:41.005Z,86.50
2018-03-16T13:47:08.437Z,86.00
2018-03-16T13:49:35.872Z,86.30
2018-03-16T13:52:03.304Z,86.60
2018-03-16T13:54:30.756Z,87.50
2018-03-16T13:56:58.189Z,88.70
2018-03-16T13:59:25.629Z,88.40
2018-03-16T14:01:53.066Z,89.10
2018-03-16T14:04:20.505Z,89.90
2018-03-16T14:06:48.330Z,89.80
2018-03-16T14:09:15.774Z,89.80
2018-03-16T14:11:43.201Z,89.90
2018-03-16T14:14:10.653Z,90.10
2018-03-16T14:16:38.477Z,91.10
2018-03-16T14:19:05.918Z,91.10
2018-03-16T14:21:33.337Z,91.40
2018-03-16T14:24:00.772Z,91.60
2018-03-16T14:26:28.602Z,91.40
2018-03-16T14:28:56.056Z,91.40
2018-03-16T14:31:23.476Z,91.20
2018-03-16T14:33:50.897Z,91.70
2018-03-16T14:36:18.338Z,91.50
2018-03-16T14:38:45.767Z,91.50
2018-03-16T14:41:13.209Z,91.70
2018-03-16T14:43:40.630Z,92.00
2018-03-16T14:46:08.471Z,92.00
2018-03-16T14:48:35.920Z,92.00
2018-03-16T14:51:03.353Z,92.20
2018-03-16T14:53:30.797Z,92.30
2018-03-16T14:55:58.254Z,91.10
2018-03-16T14:58:25.684Z,91.40
2018-03-16T15:00:53.124Z,91.60
2018-03-16T15:03:20.576Z,91.30
2018-03-16T15:05:48.008Z,91.10
2018-03-16T15:08:15.472Z,91.30
2018-03-16T15:10:42.864Z,91.60
2018-03-16T15:13:10.956Z,92.10
2018-03-16T15:15:38.384Z,92.10
2018-03-16T15:18:06.208Z,92.20
2018-03-16T15:20:34.102Z,92.40
2018-03-16T15:23:01.545Z,92.40
2018-03-16T15:25:29.010Z,92.50
2018-03-16T15:27:56.464Z,93.20
2018-03-16T15:30:23.936Z,93.70
2018-03-16T15:32:51.419Z,94.20
2018-03-16T15:35:20.374Z,94.90
2018-03-16T15:37:47.834Z,94.90
2018-03-16T15:40:15.307Z,94.90
2018-03-16T15:42:42.768Z,95.40
2018-03-16T15:45:10.228Z,95.90
2018-03-16T15:47:39.285Z,96.10
2018-03-16T15:50:08.221Z,96.10
2018-03-16T15:52:35.684Z,96.40
2018-03-16T15:55:04.148Z,96.40
2018-03-16T15:57:31.666Z,96.60
2018-03-16T15:59:59.278Z,96.40
2018-03-16T16:02:27.143Z,96.50
2018-03-16T16:04:55.679Z,96.60
2018-03-16T16:07:23.168Z,96.70
2018-03-16T16:09:50.680Z,96.70
2018-03-16T16:12:18.497Z,97.10
2018-03-16T16:14:47.713Z,96.30
2018-03-16T16:17:16.141Z,96.30
2018-03-16T16:19:43.589Z,96.30
2018-03-16T16:22:11.349Z,96.00
2018-03-16T16:24:39.255Z,96.30
2018-03-16T16:27:07.516Z,96.70
2018-03-16T16:29:35.118Z,96.70
2018-03-16T16:32:02.605Z,96.10
2018-03-16T16:34:30.980Z,95.40
2018-03-16T16:36:58.613Z,95.50
2018-03-16T16:39:26.483Z,95.70
2018-03-16T16:41:54.297Z,95.70
2018-03-16T16:44:21.722Z,95.70
2018-03-16T16:46:49.174Z,95.90
2018-03-16T16:49:16.609Z,95.80
2018-03-16T16:51:44.084Z,96.00
2018-03-16T16:54:11.460Z,96.30
2018-03-16T16:56:38.893Z,95.80
2018-03-16T16:59:06.321Z,95.70
2018-03-16T17:01:34.152Z,95.80
2018-03-16T17:04:01.574Z,95.80
2018-03-16T17:06:29.016Z,95.60
2018-03-16T17:08:56.897Z,95.80
2018-03-16T17:11:24.338Z,95.80
2018-03-16T17:13:51.884Z,95.90
2018-03-16T17:16:29.465Z,95.60
2018-03-16T17:18:56.889Z,95.70
2018-03-16T17:21:24.336Z,95.80
2018-03-16T17:23:51.769Z,95.80
2018-03-16T17:26:19.196Z,95.50
2018-03-16T17:28:46.625Z,95.50
2018-03-16T17:31:14.067Z,95.30
2018-03-16T17:33:41.497Z,95.70
2018-03-16T17:36:08.935Z,95.50
2018-03-16T17:38:36.765Z,95.60
2018-03-16T17:41:04.189Z,95.60
2018-03-16T17:43:31.627Z,95.90
2018-03-16T17:45:59.108Z,95.80
2018-03-16T17:48:26.669Z,95.70
2018-03-16T17:50:54.088Z,95.90
2018-03-16T17:53:21.513Z,95.80
2018-03-16T17:55:48.962Z,95.90
2018-03-16T17:58:16.410Z,95.40
2018-03-16T18:00:43.847Z,95.50
2018-03-16T18:03:11.269Z,95.50
2018-03-16T18:05:39.102Z,95.10
2018-03-16T18:08:06.561Z,95.10
2018-03-16T18:10:34.017Z,95.20
2018-03-16T18:13:01.441Z,95.20
2018-03-16T18:15:28.909Z,95.20
2018-03-16T18:17:56.366Z,95.60
2018-03-16T18:20:23.902Z,95.00
2018-03-16T18:22:51.358Z,94.80
2018-03-16T18:25:18.983Z,94.10
2018-03-16T18:27:46.419Z,94.40
2018-03-16T18:30:13.869Z,94.20
2018-03-16T18:32:41.297Z,94.20
2018-03-16T18:35:08.724Z,94.30
2018-03-16T18:37:36.148Z,94.00
2018-03-16T18:40:03.577Z,94.20
2018-03-16T18:42:31.099Z,94.40
2018-03-16T18:44:58.906Z,94.50
2018-03-16T18:47:26.352Z,94.50
2018-03-16T18:49:53.774Z,94.20
2018-03-16T18:52:21.668Z,94.50
2018-03-16T18:54:49.053Z,94.50
2018-03-16T18:57:16.481Z,94.50
2018-03-16T18:59:43.944Z,94.40
2018-03-16T19:02:11.389Z,94.20
2018-03-16T19:04:38.822Z,94.20
2018-03-16T19:07:07.034Z,94.40
2018-03-16T19:09:34.487Z,94.30
2018-03-16T19:12:01.921Z,94.30
2018-03-16T19:14:29.395Z,94.20
2018-03-16T19:16:56.886Z,94.30
2018-03-16T19:19:24.333Z,94.30
2018-03-16T19:21:51.761Z,94.10
2018-03-16T19:24:19.222Z,93.70
2018-03-16T19:26:46.657Z,94.00
2018-03-16T19:29:14.096Z,94.10
2018-03-16T19:31:41.923Z,93.80
2018-03-16T19:34:09.375Z,93.80
2018-03-16T19:36:36.826Z,93.30
2018-03-16T19:39:04.248Z,93.30
2018-03-16T19:41:31.694Z,93.00
2018-03-16T19:43:59.122Z,92.90
2018-03-16T19:46:26.560Z,92.00
2018-03-16T19:48:53.980Z,91.80
2018-03-16T19:51:21.424Z,91.60
2018-03-16T19:53:48.898Z,91.90
2018-03-16T19:56:16.328Z,92.00
2018-03-16T19:58:44.149Z,91.70
2018-03-16T20:01:11.575Z,91.70
2018-03-16T20:03:39.014Z,92.10
2018-03-16T20:06:06.437Z,91.80
2018-03-16T20:08:33.868Z,92.40
2018-03-16T20:11:01.312Z,92.20
2018-03-16T20:13:28.733Z,92.20
2018-03-16T20:15:57.181Z,92.30
2018-03-16T20:18:24.615Z,92.30
2018-03-16T20:20:52.033Z,92.30
2018-03-16T20:23:19.458Z,91.80
2018-03-16T20:25:46.895Z,91.70
2018-03-16T20:28:16.616Z,91.40
2018-03-16T20:30:44.061Z,91.40
2018-03-16T20:33:11.659Z,91.40
2018-03-16T20:35:39.493Z,91.70
2018-03-16T20:38:06.923Z,91.70
2018-03-16T20:40:34.363Z,91.40
2018-03-16T20:43:01.882Z,91.50
2018-03-16T20:45:29.336Z,91.20
2018-03-16T20:47:56.842Z,91.40
2018-03-16T20:50:24.259Z,91.20
2018-03-16T20:52:51.775Z,91.50
2018-03-16T20:55:19.243Z,92.10
2018-03-16T20:57:46.625Z,91.70
2018-03-16T21:00:14.071Z,91.70
2018-03-16T21:02:41.624Z,91.40
2018-03-16T21:05:09.029Z,91.60
2018-03-16T21:07:36.471Z,91.80
2018-03-16T21:10:04.373Z,91.50
2018-03-16T21:12:31.809Z,91.50
2018-03-16T21:14:59.221Z,91.70
2018-03-16T21:17:26.665Z,91.40
2018-03-16T21:19:54.123Z,91.20
2018-03-16T21:22:21.625Z,91.00
2018-03-16T21:24:49.425Z,91.10
2018-03-16T21:27:16.888Z,91.10
2018-03-16T21:29:44.320Z,90.90
2018-03-16T21:32:11.830Z,91.20
2018-03-16T21:34:39.243Z,90.80
2018-03-16T21:37:06.721Z,91.00
2018-03-16T21:39:34.228Z,90.80
2018-03-16T21:42:02.048Z,90.70
2018-03-16T21:44:29.464Z,90.70
2018-03-16T21:46:56.905Z,90.80
2018-03-16T21:49:24.738Z,90.70
2018-03-16T21:51:52.172Z,90.70
2018-03-16T21:54:20.435Z,90.80
2018-03-16T21:56:49.419Z,91.00
2018-03-16T21:59:16.868Z,90.80
2018-03-16T22:01:44.327Z,90.40
2018-03-16T22:04:11.759Z,90.70
2018-03-16T22:06:39.599Z,90.40
2018-03-16T22:09:07.038Z,90.40
2018-03-16T22:11:34.480Z,90.80
2018-03-16T22:14:01.922Z,90.90
2018-03-16T22:16:29.374Z,90.90
2018-03-16T22:18:57.205Z,91.00
2018-03-16T22:21:24.644Z,91.00
2018-03-16T22:23:52.082Z,90.80
2018-03-16T22:26:19.533Z,90.70
2018-03-16T22:28:47.693Z,90.90
2018-03-16T22:31:16.057Z,90.80
2018-03-16T22:33:43.495Z,90.80
2018-03-16T22:36:10.980Z,90.50
2018-03-16T22:38:38.412Z,90.80
2018-03-16T22:41:06.985Z,90.80
2018-03-16T22:43:34.419Z,90.80
2018-03-16T22:46:01.870Z,90.50
2018-03-16T22:48:29.309Z,90.60
2018-03-16T22:50:56.772Z,90.10
2018-03-16T22:53:24.213Z,90.00
2018-03-16T22:55:51.658Z,89.90
2018-03-16T22:58:19.095Z,89.90
2018-03-16T23:00:46.523Z,90.00
2018-03-16T23:03:14.905Z,90.10
2018-03-16T23:05:42.336Z,89.80
2018-03-16T23:08:09.798Z,89.90
2018-03-16T23:10:37.246Z,89.70
2018-03-16T23:13:04.717Z,89.80
2018-03-16T23:15:32.731Z,90.20
2018-03-16T23:18:00.427Z,89.80
2018-03-16T23:20:27.917Z,89.70
2018-03-16T23:22:55.340Z,89.50
2018-03-16T23:25:23.380Z,89.60
2018-03-16T23:27:50.849Z,89.30
2018-03-16T23:30:19.715Z,89.40
2018-03-16T23:32:47.159Z,89.70
2018-03-16T23:35:14.587Z,89.90
2018-03-16T23:37:42.033Z,89.90
2018-03-16T23:40:09.473Z,89.50
2018-03-16T23:42:36.904Z,89.50
2018-03-16T23:45:04.735Z,89.70
2018-03-16T23:47:32.861Z,89.70
2018-03-16T23:50:00.635Z,89.70
2018-03-16T23:52:28.101Z,89.60
2018-03-16T23:54:55.559Z,89.80
2018-03-16T23:57:23.773Z,89.50
2018-03-16T23:59:51.218Z,89.80
